createdAt,value
2022-12-12T00:00:30.006Z,927.39
2022-12-12T00:01:30.711Z,927.34
2022-12-12T00:02:31.387Z,927.37
2022-12-12T00:03:32.497Z,927.33
2022-12-12T00:04:32.889Z,927.37
2022-12-12T00:05:33.824Z,927.38
2022-12-12T00:06:34.436Z,927.42
2022-12-12T00:07:35.049Z,927.39
2022-12-12T00:08:36.084Z,927.41
2022-12-12T00:09:37.011Z,927.41
2022-12-12T00:10:37.632Z,927.44
2022-12-12T00:11:38.050Z,927.43
2022-12-12T00:12:38.535Z,927.42
2022-12-12T00:13:39.446Z,927.42
2022-12-12T00:14:40.345Z,927.37
2022-12-12T00:15:41.049Z,927.4
2022-12-12T00:16:41.159Z,927.4
2022-12-12T00:17:42.058Z,927.46
2022-12-12T00:18:42.973Z,927.42
2022-12-12T00:19:43.208Z,927.46
2022-12-12T00:20:43.414Z,927.5
2022-12-12T00:21:44.416Z,927.44
2022-12-12T00:22:45.311Z,927.46
2022-12-12T00:23:45.502Z,927.42
2022-12-12T00:24:46.483Z,927.5
2022-12-12T00:25:47.098Z,927.43
2022-12-12T00:26:47.282Z,927.43
2022-12-12T00:27:48.200Z,927.48
2022-12-12T00:28:48.697Z,927.5
2022-12-12T00:29:48.884Z,927.49
2022-12-12T00:30:49.100Z,927.45
2022-12-12T00:31:49.490Z,927.47
2022-12-12T00:32:50.399Z,927.44
2022-12-12T00:33:51.026Z,927.44
2022-12-12T00:34:51.959Z,927.43
2022-12-12T00:35:52.478Z,927.45
2022-12-12T00:36:53.087Z,927.48
2022-12-12T00:37:54.022Z,927.44
2022-12-12T00:38:54.239Z,927.46
2022-12-12T00:39:54.679Z,927.47
2022-12-12T00:40:55.607Z,927.48
2022-12-12T00:41:56.317Z,927.47
2022-12-12T00:42:57.241Z,927.48
2022-12-12T00:43:58.178Z,927.46
2022-12-12T00:44:58.658Z,927.47
2022-12-12T00:45:58.990Z,927.45
2022-12-12T00:46:59.802Z,927.45
2022-12-12T00:48:00.414Z,927.47
2022-12-12T00:49:00.595Z,927.46
2022-12-12T00:50:01.230Z,927.44
2022-12-12T00:51:01.862Z,927.44
2022-12-12T00:52:02.840Z,927.43
2022-12-12T00:53:03.040Z,927.44
2022-12-12T00:54:03.258Z,927.43
2022-12-12T00:55:03.626Z,927.48
2022-12-12T00:56:03.866Z,927.48
2022-12-12T00:57:04.492Z,927.48
2022-12-12T00:58:04.712Z,927.49
2022-12-12T00:59:05.361Z,927.48
2022-12-12T01:00:05.664Z,927.53
2022-12-12T01:01:05.853Z,927.49
2022-12-12T01:02:06.904Z,927.52
2022-12-12T01:03:07.734Z,927.55
2022-12-12T01:04:08.588Z,927.55
2022-12-12T01:05:08.987Z,927.54
2022-12-12T01:06:09.276Z,927.54
2022-12-12T01:07:10.168Z,927.56
2022-12-12T01:08:10.407Z,927.57
2022-12-12T01:09:11.153Z,927.56
2022-12-12T01:10:11.676Z,927.56
2022-12-12T01:11:12.573Z,927.59
2022-12-12T01:12:13.564Z,927.62
2022-12-12T01:13:14.465Z,927.58
2022-12-12T01:14:14.675Z,927.61
2022-12-12T01:15:15.102Z,927.62
2022-12-12T01:16:15.463Z,927.61
2022-12-12T01:17:15.701Z,927.62
2022-12-12T01:18:16.014Z,927.63
2022-12-12T01:19:16.925Z,927.67
2022-12-12T01:20:17.572Z,927.66
2022-12-12T01:21:17.772Z,927.67
2022-12-12T01:22:18.760Z,927.71
2022-12-12T01:23:18.939Z,927.67
2022-12-12T01:24:19.125Z,927.7
2022-12-12T01:25:19.760Z,927.68
2022-12-12T01:26:20.230Z,927.71
2022-12-12T01:27:21.138Z,927.69
2022-12-12T01:28:21.344Z,927.7
2022-12-12T01:29:21.830Z,927.7
2022-12-12T01:30:22.739Z,927.71
2022-12-12T01:31:23.146Z,927.69
2022-12-12T01:32:23.473Z,927.66
2022-12-12T01:33:23.805Z,927.64
2022-12-12T01:34:24.700Z,927.68
2022-12-12T01:35:25.186Z,927.62
2022-12-12T01:36:26.085Z,927.65
2022-12-12T01:37:26.560Z,927.63
2022-12-12T01:38:27.166Z,927.64
2022-12-12T01:39:27.800Z,927.69
2022-12-12T01:40:28.482Z,927.68
2022-12-12T01:41:28.673Z,927.72
2022-12-12T01:42:29.709Z,927.71
2022-12-12T01:43:29.927Z,927.72
2022-12-12T01:44:30.854Z,927.7
2022-12-12T01:45:31.185Z,927.74
2022-12-12T01:46:31.819Z,927.66
2022-12-12T01:47:32.457Z,927.74
2022-12-12T01:48:33.071Z,927.72
2022-12-12T01:49:33.994Z,927.77
2022-12-12T01:50:34.893Z,927.71
2022-12-12T01:51:35.802Z,927.72
2022-12-12T01:52:36.230Z,927.73
2022-12-12T01:53:36.410Z,927.69
2022-12-12T01:54:36.597Z,927.67
2022-12-12T01:55:36.882Z,927.67
2022-12-12T01:56:37.777Z,927.65
2022-12-12T01:57:38.387Z,927.68
2022-12-12T01:58:39.023Z,927.68
2022-12-12T01:59:39.545Z,927.65
2022-12-12T02:00:40.415Z,927.67
2022-12-12T02:01:40.938Z,927.67
2022-12-12T02:02:41.646Z,927.68
2022-12-12T02:03:42.573Z,927.65
2022-12-12T02:04:43.189Z,927.73
2022-12-12T02:05:43.605Z,927.72
2022-12-12T02:06:44.214Z,927.67
2022-12-12T02:07:45.190Z,927.7
2022-12-12T02:08:45.988Z,927.7
2022-12-12T02:09:46.597Z,927.72
2022-12-12T02:10:47.536Z,927.74
2022-12-12T02:11:48.449Z,927.68
2022-12-12T02:12:49.150Z,927.69
2022-12-12T02:13:50.065Z,927.73
2022-12-12T02:14:50.719Z,927.69
2022-12-12T02:15:51.425Z,927.73
2022-12-12T02:16:51.551Z,927.69
2022-12-12T02:17:51.754Z,927.72
2022-12-12T02:18:52.741Z,927.73
2022-12-12T02:19:53.649Z,927.69
2022-12-12T02:20:53.859Z,927.71
2022-12-12T02:21:54.818Z,927.69
2022-12-12T02:22:55.103Z,927.72
2022-12-12T02:23:56.031Z,927.74
2022-12-12T02:24:56.240Z,927.72
2022-12-12T02:25:57.314Z,927.72
2022-12-12T02:26:57.919Z,927.73
2022-12-12T02:27:58.107Z,927.74
2022-12-12T02:28:58.318Z,927.71
2022-12-12T02:29:58.812Z,927.72
2022-12-12T02:30:58.995Z,927.71
2022-12-12T02:31:59.252Z,927.76
2022-12-12T02:32:59.523Z,927.77
2022-12-12T02:33:59.856Z,927.78
2022-12-12T02:35:00.775Z,927.77
2022-12-12T02:36:01.252Z,927.82
2022-12-12T02:37:01.762Z,927.78
2022-12-12T02:38:02.671Z,927.81
2022-12-12T02:39:03.713Z,927.81
2022-12-12T02:40:04.200Z,927.77
2022-12-12T02:41:04.854Z,927.74
2022-12-12T02:42:05.727Z,927.78
2022-12-12T02:43:06.467Z,927.81
2022-12-12T02:44:06.970Z,927.75
2022-12-12T02:45:07.898Z,927.76
2022-12-12T02:46:08.525Z,927.76
2022-12-12T02:47:08.922Z,927.77
2022-12-12T02:48:09.879Z,927.74
2022-12-12T02:49:10.356Z,927.73
2022-12-12T02:50:11.236Z,927.73
2022-12-12T02:51:11.744Z,927.73
2022-12-12T02:52:12.663Z,927.75
2022-12-12T02:53:13.653Z,927.74
2022-12-12T02:54:14.556Z,927.74
2022-12-12T02:55:15.408Z,927.71
2022-12-12T02:56:16.064Z,927.73
2022-12-12T02:57:16.239Z,927.72
2022-12-12T02:58:16.887Z,927.72
2022-12-12T02:59:17.820Z,927.77
2022-12-12T03:00:18.039Z,927.75
2022-12-12T03:01:19.043Z,927.77
2022-12-12T03:02:19.796Z,927.77
2022-12-12T03:03:20.364Z,927.77
2022-12-12T03:04:21.275Z,927.76
2022-12-12T03:05:21.460Z,927.74
2022-12-12T03:06:22.404Z,927.73
2022-12-12T03:07:23.400Z,927.71
2022-12-12T03:08:23.601Z,927.75
2022-12-12T03:09:23.956Z,927.74
2022-12-12T03:10:24.845Z,927.77
2022-12-12T03:11:25.843Z,927.75
2022-12-12T03:12:26.015Z,927.7
2022-12-12T03:13:27.019Z,927.75
2022-12-12T03:14:27.523Z,927.75
2022-12-12T03:15:28.448Z,927.79
2022-12-12T03:16:29.504Z,927.77
2022-12-12T03:17:29.951Z,927.78
2022-12-12T03:18:30.132Z,927.8
2022-12-12T03:19:31.032Z,927.78
2022-12-12T03:20:31.939Z,927.82
2022-12-12T03:21:32.849Z,927.8
2022-12-12T03:22:33.047Z,927.84
2022-12-12T03:23:33.761Z,927.78
2022-12-12T03:24:34.378Z,927.8
2022-12-12T03:25:34.576Z,927.8
2022-12-12T03:26:35.090Z,927.83
2022-12-12T03:27:36.012Z,927.81
2022-12-12T03:28:36.346Z,927.82
2022-12-12T03:29:37.250Z,927.83
2022-12-12T03:30:38.177Z,927.83
2022-12-12T03:31:38.697Z,927.84
2022-12-12T03:32:39.148Z,927.81
2022-12-12T03:33:39.842Z,927.84
2022-12-12T03:34:40.480Z,927.82
2022-12-12T03:35:41.515Z,927.82
2022-12-12T03:36:41.712Z,927.84
2022-12-12T03:37:42.623Z,927.88
2022-12-12T03:38:42.816Z,927.9
2022-12-12T03:39:43.719Z,927.85
2022-12-12T03:40:44.639Z,927.85
2022-12-12T03:41:44.873Z,927.88
2022-12-12T03:42:45.046Z,927.86
2022-12-12T03:43:46.072Z,927.85
2022-12-12T03:44:46.692Z,927.89
2022-12-12T03:45:47.001Z,927.87
2022-12-12T03:46:47.444Z,927.85
2022-12-12T03:47:48.328Z,927.85
2022-12-12T03:48:48.971Z,927.91
2022-12-12T03:49:49.865Z,927.91
2022-12-12T03:50:50.753Z,927.95
2022-12-12T03:51:50.954Z,927.92
2022-12-12T03:52:51.444Z,927.91
2022-12-12T03:53:51.850Z,927.95
2022-12-12T03:54:52.336Z,927.91
2022-12-12T03:55:52.928Z,927.94
2022-12-12T03:56:53.340Z,927.92
2022-12-12T03:57:53.342Z,927.96
2022-12-12T03:58:54.270Z,927.95
2022-12-12T03:59:54.774Z,927.92
2022-12-12T04:00:55.003Z,927.93
2022-12-12T04:01:55.510Z,927.94
2022-12-12T04:02:55.999Z,927.99
2022-12-12T04:03:57.009Z,927.94
2022-12-12T04:04:57.321Z,927.89
2022-12-12T04:05:58.405Z,927.89
2022-12-12T04:06:59.103Z,927.93
2022-12-12T04:07:59.073Z,927.94
2022-12-12T04:08:59.323Z,927.94
2022-12-12T04:10:00.237Z,927.93
2022-12-12T04:11:00.434Z,927.96
2022-12-12T04:12:00.780Z,927.96
2022-12-12T04:13:00.983Z,927.96
2022-12-12T04:14:01.382Z,928.03
2022-12-12T04:15:01.641Z,928.03
2022-12-12T04:16:02.001Z,928.03
2022-12-12T04:17:02.186Z,928.04
2022-12-12T04:18:02.666Z,928.02
2022-12-12T04:19:02.846Z,928.08
2022-12-12T04:20:03.105Z,928.06
2022-12-12T04:21:03.814Z,928.05
2022-12-12T04:22:04.442Z,928.03
2022-12-12T04:23:05.308Z,928.1
2022-12-12T04:24:06.342Z,928.1
2022-12-12T04:25:06.528Z,928.09
2022-12-12T04:26:07.277Z,928.1
2022-12-12T04:27:07.496Z,928.11
2022-12-12T04:28:08.119Z,928.13
2022-12-12T04:29:09.020Z,928.13
2022-12-12T04:30:09.520Z,928.07
2022-12-12T04:31:09.728Z,928.11
2022-12-12T04:32:10.116Z,928.13
2022-12-12T04:33:10.606Z,928.12
2022-12-12T04:34:11.305Z,928.12
2022-12-12T04:35:12.565Z,928.12
2022-12-12T04:36:12.626Z,928.14
2022-12-12T04:37:13.122Z,928.17
2022-12-12T04:38:13.305Z,928.19
2022-12-12T04:39:14.247Z,928.17
2022-12-12T04:40:14.864Z,928.2
2022-12-12T04:41:15.749Z,928.23
2022-12-12T04:42:16.740Z,928.27
2022-12-12T04:43:16.920Z,928.18
2022-12-12T04:44:17.644Z,928.23
2022-12-12T04:45:17.845Z,928.21
2022-12-12T04:46:18.478Z,928.22
2022-12-12T04:47:19.151Z,928.22
2022-12-12T04:48:20.194Z,928.22
2022-12-12T04:49:21.247Z,928.21
2022-12-12T04:50:21.430Z,928.23
2022-12-12T04:51:22.342Z,928.23
2022-12-12T04:52:22.986Z,928.18
2022-12-12T04:53:23.876Z,928.2
2022-12-12T04:54:24.329Z,928.23
2022-12-12T04:55:24.803Z,928.21
2022-12-12T04:56:24.991Z,928.23
2022-12-12T04:57:26.068Z,928.28
2022-12-12T04:58:26.965Z,928.3
2022-12-12T04:59:27.888Z,928.31
2022-12-12T05:00:28.805Z,928.27
2022-12-12T05:01:29.438Z,928.3
2022-12-12T05:02:30.059Z,928.34
2022-12-12T05:03:31.014Z,928.28
2022-12-12T05:04:31.744Z,928.31
2022-12-12T05:05:32.357Z,928.3
2022-12-12T05:06:32.837Z,928.3
2022-12-12T05:07:37.979Z,928.34
2022-12-12T05:08:33.881Z,928.32
2022-12-12T05:09:34.809Z,928.39
2022-12-12T05:10:35.842Z,928.36
2022-12-12T05:11:36.749Z,928.36
2022-12-12T05:12:37.682Z,928.4
2022-12-12T05:13:38.600Z,928.42
2022-12-12T05:14:39.432Z,928.41
2022-12-12T05:15:44.770Z,928.4
2022-12-12T05:16:41.454Z,928.44
2022-12-12T05:17:41.719Z,928.45
2022-12-12T05:18:41.959Z,928.44
2022-12-12T05:19:42.290Z,928.41
2022-12-12T05:20:42.910Z,928.45
2022-12-12T05:21:43.541Z,928.42
2022-12-12T05:22:44.470Z,928.44
2022-12-12T05:23:44.652Z,928.47
2022-12-12T05:24:44.784Z,928.44
2022-12-12T05:25:45.697Z,928.44
2022-12-12T05:26:45.901Z,928.48
2022-12-12T05:27:46.837Z,928.47
2022-12-12T05:28:47.016Z,928.46
2022-12-12T05:29:47.432Z,928.51
2022-12-12T05:30:48.399Z,928.48
2022-12-12T05:31:48.782Z,928.57
2022-12-12T05:32:48.986Z,928.52
2022-12-12T05:33:49.893Z,928.52
2022-12-12T05:34:50.019Z,928.57
2022-12-12T05:35:50.212Z,928.58
2022-12-12T05:36:50.819Z,928.44
2022-12-12T05:37:52.034Z,928.42
2022-12-12T05:38:51.483Z,928.46
2022-12-12T05:39:51.680Z,928.49
2022-12-12T05:40:52.016Z,928.46
2022-12-12T05:41:52.924Z,928.49
2022-12-12T05:42:53.215Z,928.53
2022-12-12T05:43:54.114Z,928.52
2022-12-12T05:44:54.395Z,928.56
2022-12-12T05:45:54.770Z,928.6
2022-12-12T05:46:55.388Z,928.58
2022-12-12T05:47:56.277Z,928.56
2022-12-12T05:48:56.472Z,928.55
2022-12-12T05:49:56.953Z,928.54
2022-12-12T05:50:57.162Z,928.5
2022-12-12T05:51:57.495Z,928.62
2022-12-12T05:52:58.145Z,928.59
2022-12-12T05:53:58.627Z,928.63
2022-12-12T05:54:59.476Z,928.65
2022-12-12T05:56:00.190Z,928.61
2022-12-12T05:57:00.505Z,928.58
2022-12-12T05:58:00.870Z,928.67
2022-12-12T05:59:01.765Z,928.67
2022-12-12T06:00:02.693Z,928.68
2022-12-12T06:01:03.598Z,928.66
2022-12-12T06:02:04.236Z,928.58
2022-12-12T06:03:04.875Z,928.58
2022-12-12T06:04:05.507Z,928.61
2022-12-12T06:05:06.486Z,928.59
2022-12-12T06:06:06.960Z,928.53
2022-12-12T06:07:07.572Z,928.56
2022-12-12T06:08:07.825Z,928.61
2022-12-12T06:09:08.784Z,928.57
2022-12-12T06:10:08.972Z,928.56
2022-12-12T06:11:09.867Z,928.63
2022-12-12T06:12:10.485Z,928.59
2022-12-12T06:13:11.413Z,928.56
2022-12-12T06:14:12.312Z,928.61
2022-12-12T06:15:12.843Z,928.62
2022-12-12T06:16:12.764Z,928.63
2022-12-12T06:17:13.166Z,928.59
2022-12-12T06:18:13.469Z,928.63
2022-12-12T06:19:13.653Z,928.6
2022-12-12T06:20:13.845Z,928.7
2022-12-12T06:21:14.329Z,928.64
2022-12-12T06:22:14.512Z,928.66
2022-12-12T06:23:15.163Z,928.61
2022-12-12T06:24:15.402Z,928.65
2022-12-12T06:25:16.487Z,928.68
2022-12-12T06:26:16.703Z,928.72
2022-12-12T06:27:17.325Z,928.66
2022-12-12T06:28:18.340Z,928.67
2022-12-12T06:29:19.246Z,928.66
2022-12-12T06:30:19.860Z,928.67
2022-12-12T06:31:20.156Z,928.69
2022-12-12T06:32:21.078Z,928.7
2022-12-12T06:33:21.280Z,928.69
2022-12-12T06:34:21.893Z,928.71
2022-12-12T06:35:22.603Z,928.7
2022-12-12T06:36:23.085Z,928.71
2022-12-12T06:37:23.711Z,928.71
2022-12-12T06:38:24.282Z,928.69
2022-12-12T06:39:24.904Z,928.71
2022-12-12T06:40:25.167Z,928.75
2022-12-12T06:41:25.371Z,928.71
2022-12-12T06:42:26.259Z,928.7
2022-12-12T06:43:26.392Z,928.76
2022-12-12T06:44:27.293Z,928.82
2022-12-12T06:45:28.286Z,928.76
2022-12-12T06:46:28.549Z,928.82
2022-12-12T06:47:29.263Z,928.83
2022-12-12T06:48:29.595Z,928.86
2022-12-12T06:49:30.207Z,928.85
2022-12-12T06:50:30.694Z,928.88
2022-12-12T06:51:30.881Z,928.92
2022-12-12T06:52:31.787Z,928.93
2022-12-12T06:53:32.705Z,928.91
2022-12-12T06:54:33.601Z,928.94
2022-12-12T06:55:33.865Z,928.92
2022-12-12T06:56:34.073Z,928.93
2022-12-12T06:57:34.765Z,928.95
2022-12-12T06:58:35.431Z,928.99
2022-12-12T06:59:35.632Z,928.93
2022-12-12T07:00:35.821Z,928.97
2022-12-12T07:01:36.098Z,928.96
2022-12-12T07:02:36.562Z,928.95
2022-12-12T07:03:37.441Z,929
2022-12-12T07:04:38.381Z,928.97
2022-12-12T07:05:38.706Z,929
2022-12-12T07:06:38.906Z,928.99
2022-12-12T07:07:39.391Z,928.99
2022-12-12T07:08:40.033Z,929
2022-12-12T07:09:40.210Z,928.99
2022-12-12T07:10:41.125Z,929.01
2022-12-12T07:11:41.765Z,929.03
2022-12-12T07:12:44.350Z,929.01
2022-12-12T07:13:42.811Z,929.02
2022-12-12T07:14:43.693Z,929.05
2022-12-12T07:15:44.408Z,929.06
2022-12-12T07:16:44.676Z,929.04
2022-12-12T07:17:45.585Z,929.06
2022-12-12T07:18:45.776Z,929.07
2022-12-12T07:19:45.963Z,929.07
2022-12-12T07:20:46.291Z,929.12
2022-12-12T07:21:46.481Z,929.11
2022-12-12T07:22:47.222Z,929.12
2022-12-12T07:23:47.459Z,929.08
2022-12-12T07:24:48.380Z,929.06
2022-12-12T07:25:48.714Z,929.09
2022-12-12T07:26:48.915Z,929.1
2022-12-12T07:27:49.839Z,929.1
2022-12-12T07:28:50.306Z,929.13
2022-12-12T07:29:50.506Z,929.16
2022-12-12T07:30:50.758Z,929.18
2022-12-12T07:31:51.681Z,929.17
2022-12-12T07:32:52.609Z,929.18
2022-12-12T07:33:53.257Z,929.19
2022-12-12T07:34:54.178Z,929.18
2022-12-12T07:35:55.012Z,929.22
2022-12-12T07:37:01.008Z,929.19
2022-12-12T07:37:56.782Z,929.23
2022-12-12T07:38:57.435Z,929.23
2022-12-12T07:39:58.498Z,929.22
2022-12-12T07:40:59.148Z,929.29
2022-12-12T07:42:00.071Z,929.27
2022-12-12T07:43:00.274Z,929.32
2022-12-12T07:44:01.210Z,929.36
2022-12-12T07:45:01.703Z,929.31
2022-12-12T07:46:02.508Z,929.39
2022-12-12T07:47:03.188Z,929.42
2022-12-12T07:48:03.481Z,929.49
2022-12-12T07:49:03.683Z,929.46
2022-12-12T07:50:03.893Z,929.49
2022-12-12T07:51:04.497Z,929.53
2022-12-12T07:52:04.695Z,929.55
2022-12-12T07:53:05.605Z,929.53
2022-12-12T07:54:06.291Z,929.48
2022-12-12T07:55:07.208Z,929.49
2022-12-12T07:56:07.620Z,929.51
2022-12-12T07:57:08.267Z,929.5
2022-12-12T07:58:08.467Z,929.55
2022-12-12T07:59:09.618Z,929.56
2022-12-12T08:00:10.132Z,929.56
2022-12-12T08:01:14.273Z,929.54
2022-12-12T08:02:11.452Z,929.57
2022-12-12T08:03:12.400Z,929.57
2022-12-12T08:04:12.667Z,929.57
2022-12-12T08:05:13.097Z,929.6
2022-12-12T08:06:13.807Z,929.61
2022-12-12T08:07:14.366Z,929.68
2022-12-12T08:08:15.300Z,929.66
2022-12-12T08:09:16.299Z,929.61
2022-12-12T08:10:17.224Z,929.63
2022-12-12T08:11:18.288Z,929.65
2022-12-12T08:12:19.130Z,929.62
2022-12-12T08:13:19.707Z,929.64
2022-12-12T08:14:20.008Z,929.65
2022-12-12T08:15:20.231Z,929.66
2022-12-12T08:16:21.186Z,929.64
2022-12-12T08:17:21.808Z,929.68
2022-12-12T08:18:22.063Z,929.65
2022-12-12T08:19:22.257Z,929.65
2022-12-12T08:20:23.168Z,929.7
2022-12-12T08:21:25.988Z,929.67
2022-12-12T08:22:24.955Z,929.68
2022-12-12T08:23:25.597Z,929.62
2022-12-12T08:24:26.241Z,929.68
2022-12-12T08:25:27.216Z,929.68
2022-12-12T08:26:27.541Z,929.68
2022-12-12T08:27:28.444Z,929.7
2022-12-12T08:28:28.660Z,929.71
2022-12-12T08:29:29.584Z,929.72
2022-12-12T08:30:30.479Z,929.75
2022-12-12T08:31:30.703Z,929.73
2022-12-12T08:32:31.344Z,929.75
2022-12-12T08:33:32.261Z,929.8
2022-12-12T08:34:32.877Z,929.79
2022-12-12T08:35:33.363Z,929.75
2022-12-12T08:36:33.774Z,929.8
2022-12-12T08:37:34.684Z,929.82
2022-12-12T08:38:34.899Z,929.85
2022-12-12T08:39:35.143Z,929.83
2022-12-12T08:40:35.459Z,929.87
2022-12-12T08:41:36.411Z,929.88
2022-12-12T08:42:36.905Z,929.85
2022-12-12T08:43:37.134Z,929.88
2022-12-12T08:44:37.350Z,929.88
2022-12-12T08:45:37.847Z,929.9
2022-12-12T08:46:38.351Z,929.88
2022-12-12T08:47:39.244Z,929.89
2022-12-12T08:48:39.602Z,929.87
2022-12-12T08:49:40.533Z,929.89
2022-12-12T08:50:41.434Z,929.92
2022-12-12T08:51:41.627Z,929.95
2022-12-12T08:52:41.952Z,929.94
2022-12-12T08:53:42.450Z,929.93
2022-12-12T08:54:42.722Z,929.93
2022-12-12T08:55:43.634Z,929.93
2022-12-12T08:56:44.029Z,929.96
2022-12-12T08:57:44.956Z,929.98
2022-12-12T08:58:45.939Z,930.04
2022-12-12T08:59:46.432Z,929.98
2022-12-12T09:00:46.987Z,930.05
2022-12-12T09:01:48.090Z,930.07
2022-12-12T09:02:49.122Z,930.04
2022-12-12T09:03:49.568Z,930.01
2022-12-12T09:04:49.826Z,930.04
2022-12-12T09:05:50.032Z,930.09
2022-12-12T09:06:50.331Z,930.04
2022-12-12T09:07:50.914Z,930.1
2022-12-12T09:08:51.834Z,930.1
2022-12-12T09:09:52.030Z,930.1
2022-12-12T09:10:52.896Z,930.07
2022-12-12T09:11:53.553Z,930.05
2022-12-12T09:12:54.059Z,930.11
2022-12-12T09:13:54.708Z,930.12
2022-12-12T09:14:55.668Z,930.16
2022-12-12T09:15:56.257Z,930.18
2022-12-12T09:16:56.449Z,930.21
2022-12-12T09:17:56.715Z,930.24
2022-12-12T09:18:57.210Z,930.24
2022-12-12T09:19:57.575Z,930.26
2022-12-12T09:20:58.496Z,930.25
2022-12-12T09:21:59.435Z,930.23
2022-12-12T09:23:00.369Z,930.18
2022-12-12T09:24:00.596Z,930.24
2022-12-12T09:25:00.917Z,930.26
2022-12-12T09:26:01.495Z,930.23
2022-12-12T09:27:02.254Z,930.23
2022-12-12T09:28:03.180Z,930.25
2022-12-12T09:29:03.673Z,930.24
2022-12-12T09:30:04.632Z,930.27
2022-12-12T09:31:04.872Z,930.27
2022-12-12T09:32:05.528Z,930.26
2022-12-12T09:33:06.050Z,930.28
2022-12-12T09:34:06.150Z,930.36
2022-12-12T09:35:06.435Z,930.33
2022-12-12T09:36:06.754Z,930.41
2022-12-12T09:37:07.499Z,930.41
2022-12-12T09:38:13.911Z,930.34
2022-12-12T09:39:08.981Z,930.36
2022-12-12T09:40:09.217Z,930.42
2022-12-12T09:41:09.858Z,930.36
2022-12-12T09:42:10.084Z,930.41
2022-12-12T09:43:11.004Z,930.41
2022-12-12T09:44:11.167Z,930.36
2022-12-12T09:45:11.846Z,930.39
2022-12-12T09:46:12.229Z,930.36
2022-12-12T09:47:12.515Z,930.39
2022-12-12T09:48:13.012Z,930.33
2022-12-12T09:49:13.285Z,930.31
2022-12-12T09:50:14.532Z,930.32
2022-12-12T09:51:15.070Z,930.32
2022-12-12T09:52:16.075Z,930.34
2022-12-12T09:53:16.888Z,930.31
2022-12-12T09:54:17.195Z,930.29
2022-12-12T09:55:18.224Z,930.25
2022-12-12T09:56:18.858Z,930.25
2022-12-12T09:57:19.520Z,930.24
2022-12-12T09:58:19.847Z,930.28
2022-12-12T09:59:20.870Z,930.26
2022-12-12T10:00:21.332Z,930.29
2022-12-12T10:01:21.792Z,930.24
2022-12-12T10:02:22.798Z,930.27
2022-12-12T10:03:23.295Z,930.26
2022-12-12T10:04:23.814Z,930.28
2022-12-12T10:05:24.672Z,930.33
2022-12-12T10:06:40.380Z,930.35
2022-12-12T10:07:29.038Z,930.34
2022-12-12T10:08:29.140Z,930.38
2022-12-12T10:09:29.902Z,930.42
2022-12-12T10:10:30.350Z,930.45
2022-12-12T10:11:31.014Z,930.46
2022-12-12T10:12:31.560Z,930.47
2022-12-12T10:13:31.669Z,930.4
2022-12-12T10:14:31.898Z,930.43
2022-12-12T10:15:32.849Z,930.44
2022-12-12T10:16:33.845Z,930.48
2022-12-12T10:17:34.806Z,930.51
2022-12-12T10:18:35.313Z,930.5
2022-12-12T10:19:35.998Z,930.49
2022-12-12T10:20:36.675Z,930.44
2022-12-12T10:21:37.209Z,930.51
2022-12-12T10:22:37.515Z,930.49
2022-12-12T10:23:38.239Z,930.47
2022-12-12T10:24:38.746Z,930.44
2022-12-12T10:25:39.415Z,930.52
2022-12-12T10:26:40.054Z,930.5
2022-12-12T10:27:40.385Z,930.52
2022-12-12T10:28:40.876Z,930.5
2022-12-12T10:29:41.840Z,930.47
2022-12-12T10:30:42.094Z,930.47
2022-12-12T10:31:42.481Z,930.46
2022-12-12T10:32:42.435Z,930.46
2022-12-12T10:33:42.673Z,930.48
2022-12-12T10:34:43.154Z,930.49
2022-12-12T10:35:44.157Z,930.51
2022-12-12T10:36:44.399Z,930.45
2022-12-12T10:37:45.218Z,930.49
2022-12-12T10:38:45.725Z,930.46
2022-12-12T10:39:45.944Z,930.5
2022-12-12T10:40:46.601Z,930.52
2022-12-12T10:41:46.832Z,930.45
2022-12-12T10:42:47.843Z,930.5
2022-12-12T10:43:48.789Z,930.53
2022-12-12T10:44:49.426Z,930.47
2022-12-12T10:45:50.579Z,930.51
2022-12-12T10:46:51.246Z,930.47
2022-12-12T10:47:51.967Z,930.45
2022-12-12T10:48:52.188Z,930.45
2022-12-12T10:49:52.879Z,930.49
2022-12-12T10:50:53.084Z,930.51
2022-12-12T10:51:53.757Z,930.53
2022-12-12T10:52:54.387Z,930.44
2022-12-12T10:53:54.891Z,930.47
2022-12-12T10:54:55.800Z,930.45
2022-12-12T10:55:56.307Z,930.46
2022-12-12T10:56:56.805Z,930.42
2022-12-12T10:57:57.375Z,930.43
2022-12-12T10:58:58.311Z,930.39
2022-12-12T10:59:58.957Z,930.37
2022-12-12T11:01:00.144Z,930.34
2022-12-12T11:02:09.953Z,930.34
2022-12-12T11:03:01.415Z,930.29
2022-12-12T11:04:01.550Z,930.29
2022-12-12T11:05:01.821Z,930.26
2022-12-12T11:06:02.755Z,930.17
2022-12-12T11:07:03.251Z,930.22
2022-12-12T11:08:04.353Z,930.2
2022-12-12T11:09:05.282Z,930.23
2022-12-12T11:10:05.511Z,930.25
2022-12-12T11:11:06.034Z,930.26
2022-12-12T11:12:06.241Z,930.29
2022-12-12T11:13:06.467Z,930.27
2022-12-12T11:14:06.711Z,930.27
2022-12-12T11:15:07.647Z,930.26
2022-12-12T11:16:13.021Z,930.26
2022-12-12T11:17:08.915Z,930.31
2022-12-12T11:18:09.341Z,930.31
2022-12-12T11:19:09.872Z,930.3
2022-12-12T11:20:10.843Z,930.28
2022-12-12T11:21:11.343Z,930.3
2022-12-12T11:22:11.854Z,930.26
2022-12-12T11:23:17.992Z,930.3
2022-12-12T11:24:13.400Z,930.27
2022-12-12T11:25:13.849Z,930.23
2022-12-12T11:26:14.470Z,930.24
2022-12-12T11:27:15.402Z,930.17
2022-12-12T11:28:15.837Z,930.14
2022-12-12T11:29:16.766Z,930.14
2022-12-12T11:30:17.677Z,930.11
2022-12-12T11:31:18.027Z,930.08
2022-12-12T11:32:18.071Z,930.14
2022-12-12T11:33:18.705Z,930.09
2022-12-12T11:34:18.928Z,930.09
2022-12-12T11:35:19.139Z,930.08
2022-12-12T11:36:20.054Z,930.04
2022-12-12T11:37:20.285Z,930.05
2022-12-12T11:38:21.275Z,930.01
2022-12-12T11:39:21.486Z,929.98
2022-12-12T11:40:21.724Z,929.99
2022-12-12T11:41:21.951Z,930.01
2022-12-12T11:42:22.466Z,929.96
2022-12-12T11:43:22.972Z,929.96
2022-12-12T11:44:23.891Z,929.95
2022-12-12T11:45:24.216Z,929.99
2022-12-12T11:46:24.627Z,929.98
2022-12-12T11:47:24.814Z,929.97
2022-12-12T11:48:25.165Z,930
2022-12-12T11:49:25.380Z,929.94
2022-12-12T11:50:26.340Z,929.93
2022-12-12T11:51:27.241Z,929.96
2022-12-12T11:52:28.173Z,929.93
2022-12-12T11:53:28.667Z,929.96
2022-12-12T11:54:28.889Z,929.94
2022-12-12T11:55:29.116Z,929.96
2022-12-12T11:56:29.624Z,929.96
2022-12-12T11:57:30.127Z,929.94
2022-12-12T11:58:30.855Z,929.97
2022-12-12T11:59:31.087Z,930
2022-12-12T12:00:32.011Z,929.97
2022-12-12T12:01:32.264Z,929.97
2022-12-12T12:02:32.476Z,929.95
2022-12-12T12:03:33.272Z,929.96
2022-12-12T12:04:33.750Z,929.95
2022-12-12T12:05:34.570Z,929.94
2022-12-12T12:06:35.285Z,929.95
2022-12-12T12:07:35.778Z,929.97
2022-12-12T12:08:36.657Z,929.97
2022-12-12T12:09:37.592Z,929.95
2022-12-12T12:10:37.834Z,929.93
2022-12-12T12:11:38.171Z,929.95
2022-12-12T12:12:38.384Z,929.96
2022-12-12T12:13:39.012Z,929.91
2022-12-12T12:14:39.946Z,929.91
2022-12-12T12:15:40.897Z,929.89
2022-12-12T12:16:41.564Z,929.81
2022-12-12T12:17:42.029Z,929.82
2022-12-12T12:18:43.049Z,929.9
2022-12-12T12:19:43.982Z,929.85
2022-12-12T12:20:44.301Z,929.9
2022-12-12T12:21:44.516Z,929.86
2022-12-12T12:22:44.774Z,929.84
2022-12-12T12:23:50.201Z,929.85
2022-12-12T12:24:46.020Z,929.84
2022-12-12T12:25:46.520Z,929.82
2022-12-12T12:26:46.763Z,929.85
2022-12-12T12:27:47.096Z,929.85
2022-12-12T12:28:47.425Z,929.84
2022-12-12T12:29:47.804Z,929.8
2022-12-12T12:30:48.765Z,929.83
2022-12-12T12:31:49.500Z,929.83
2022-12-12T12:32:49.719Z,929.85
2022-12-12T12:33:50.209Z,929.84
2022-12-12T12:34:50.461Z,929.84
2022-12-12T12:35:51.437Z,929.9
2022-12-12T12:36:51.631Z,929.95
2022-12-12T12:37:51.869Z,929.94